Austin Straubel International Airport Green Bay US
ICAO: KGRB
IATA: GRB
Category: Large
Scheduled Services: Yes

Elevation: 695 ft
TransAlt. 18000 ft.

Airport Communications:
GREEN BAY APP:119.4
ATIS:124.1
CLNC DEL:121.75
CTAF:118.7
GREEN BAY DEP:126.55
GND:121.9
GREEN BAY RDO:122.2
GREEN BAY TWR:118.7
UNICOM:122.95

KGRB Zoom In..

If Map Doesn't Load, Click Here

Runways:

(A) RW 06 length 7699 ft width 150 ft
ILS 109.50 / hdg 62

(B) RW 18 length 8699 ft width 150 ft
---- / hdg 182

(C) RW 24 length 7699 ft width 150 ft
---- / hdg 242

(D) RW 36 length 8699 ft width 150 ft
ILS 109.90 / hdg 2

Location; KGRB
Day. 24 / Time. 04.53 Zulu
* Altimeter: 30.16
* Temperature: 12° c. 53.6°f.
* Wind from: 100° Speed 05 kn.
Dewpoint: 11° c.
Visibility: 10 Statute Miles.
Clouds: Clear (automated report).

KGRB 240453Z AUTO 10005KT 10SM CLR 12/11 A3016 RMK AO2 SLP212 T01220111


Wind From 100°
Speed 05 kn.

 
 
jpsmedia.com for Web Design worldairports.se 2018   terms of use